Time;durP1;ratioP1;P1;durP2;ratioP2;P2;SDS_P1;SDS_P2;PMS_P1;PMS_P2;Temp;Humidity;BMP_temperature;BMP_pressure;BME280_temperature;BME280_humidity;BME280_pressure;Samples;Min_cycle;Max_cycle;Signal;HPM_P1;HPM_P2
2022/09/11 00:01:26;;;;;;;54.87;37.00;;;14.20;18.10;;;;;;5027531;28;20199;-64
2022/09/11 00:03:56;;;;;;;55.87;37.50;;;14.10;34.00;;;;;;5045115;28;20202;-63
2022/09/11 00:06:25;;;;;;;64.00;41.27;;;14.10;99.90;;;;;;5045204;28;20291;-64
2022/09/11 00:08:59;;;;;;;58.43;38.63;;;14.10;99.90;;;;;;5043365;28;20315;-64
2022/09/11 00:11:33;;;;;;;60.43;39.17;;;14.10;99.90;;;;;;5044591;28;20216;-64
2022/09/11 00:14:00;;;;;;;58.80;38.67;;;14.10;1.00;;;;;;5025756;28;20224;-64
2022/09/11 00:16:33;;;;;;;67.60;38.83;;;14.10;1.00;;;;;;5045292;28;20215;-65
2022/09/11 00:19:21;;;;;;;68.43;40.43;;;14.00;1.00;;;;;;5045550;28;20234;-64
2022/09/11 00:21:50;;;;;;;57.10;38.20;;;14.10;1.00;;;;;;5046836;28;20210;-64
2022/09/11 00:24:17;;;;;;;57.27;37.67;;;14.00;1.00;;;;;;5045177;28;20203;-64
2022/09/11 00:26:46;;;;;;;55.08;36.80;;;14.00;1.00;;;;;;5028743;28;20206;-63
2022/09/11 00:29:13;;;;;;;50.43;32.90;;;13.90;1.00;;;;;;5043069;28;20266;-65
2022/09/11 00:31:40;;;;;;;57.83;34.93;;;13.90;1.00;;;;;;5042017;28;20223;-63
2022/09/11 00:34:07;;;;;;;48.03;31.50;;;13.90;1.00;;;;;;5023955;28;20277;-63
2022/09/11 00:36:38;;;;;;;50.33;32.37;;;13.80;1.00;;;;;;5042647;28;20196;-63
2022/09/11 00:39:05;;;;;;;50.57;32.30;;;13.80;1.00;;;;;;5026045;28;20195;-65
2022/09/11 00:41:36;;;;;;;43.60;29.50;;;13.70;1.00;;;;;;5041237;28;20199;-63
2022/09/11 00:44:15;;;;;;;43.57;32.07;;;13.70;1.00;;;;;;5025200;28;20198;-65
2022/09/11 00:46:49;;;;;;;42.60;32.33;;;13.70;1.00;;;;;;5028548;28;20256;-64
2022/09/11 00:49:32;;;;;;;53.13;35.67;;;13.70;42.10;;;;;;5042941;28;20230;-64
2022/09/11 00:52:09;;;;;;;58.07;38.17;;;13.80;99.90;;;;;;5040596;28;20226;-61
2022/09/11 00:54:43;;;;;;;62.67;41.00;;;13.80;99.90;;;;;;5041719;28;20202;-64
2022/09/11 00:57:12;;;;;;;54.37;38.27;;;13.80;99.90;;;;;;5041254;28;20187;-64
2022/09/11 00:59:42;;;;;;;61.80;40.27;;;13.80;99.90;;;;;;5021346;28;20195;-62
2022/09/11 01:02:13;;;;;;;69.47;42.27;;;13.80;1.00;;;;;;5020984;28;20238;-64
2022/09/11 01:04:41;;;;;;;66.23;41.73;;;13.90;1.00;;;;;;5042601;28;20607;-63
2022/09/11 01:07:10;;;;;;;67.00;41.33;;;13.90;1.00;;;;;;5045956;28;20557;-64
2022/09/11 01:09:37;;;;;;;62.23;43.73;;;13.80;1.00;;;;;;5045811;28;20554;-65
2022/09/11 01:12:17;;;;;;;65.20;42.30;;;13.80;1.00;;;;;;5043588;28;20207;-64
2022/09/11 01:15:02;;;;;;;62.30;39.40;;;13.80;1.00;;;;;;5026679;28;20227;-64
2022/09/11 01:18:05;;;;;;;57.33;38.70;;;13.80;99.90;;;;;;5012855;28;20195;-63
2022/09/11 01:21:09;;;;;;;49.07;34.80;;;13.70;99.90;;;;;;5016408;28;20236;-64
2022/09/11 01:24:31;;;;;;;55.30;34.57;;;13.60;99.90;;;;;;5028401;28;20202;-64
2022/09/11 01:27:30;;;;;;;48.13;33.83;;;13.60;99.90;;;;;;5012556;28;20348;-64
2022/09/11 01:30:07;;;;;;;47.60;33.17;;;13.50;99.90;;;;;;4989993;28;20282;-64
2022/09/11 01:33:01;;;;;;;51.73;34.93;;;13.50;99.90;;;;;;5045901;28;20207;-64
2022/09/11 01:35:41;;;;;;;51.27;33.40;;;13.40;99.90;;;;;;5029666;28;20207;-64
2022/09/11 01:38:48;;;;;;;53.43;34.30;;;13.40;99.90;;;;;;5044328;28;20206;-65
2022/09/11 01:41:20;;;;;;;48.57;33.13;;;13.40;99.90;;;;;;5033570;28;20658;-65
2022/09/11 01:43:55;;;;;;;52.07;34.47;;;13.40;99.90;;;;;;5042563;28;20204;-64
2022/09/11 01:46:25;;;;;;;55.20;33.40;;;13.30;99.90;;;;;;5025925;28;20187;-64
2022/09/11 01:49:11;;;;;;;58.37;32.73;;;13.30;99.90;;;;;;5028664;28;20204;-65
2022/09/11 01:51:40;;;;;;;41.30;27.27;;;13.30;99.90;;;;;;5045959;28;20195;-65
2022/09/11 01:54:13;;;;;;;47.17;30.87;;;13.40;99.90;;;;;;5045175;28;20188;-64
2022/09/11 01:56:46;;;;;;;43.57;30.53;;;13.60;99.90;;;;;;5046851;28;20187;-64
2022/09/11 01:59:19;;;;;;;43.43;31.00;;;13.80;1.00;;;;;;5026555;28;20203;-64
2022/09/11 02:01:52;;;;;;;44.90;31.53;;;13.80;1.00;;;;;;5027430;28;20801;-65
2022/09/11 02:04:28;;;;;;;55.27;35.43;;;13.80;1.00;;;;;;5028449;28;20207;-63
2022/09/11 02:07:18;;;;;;;50.00;32.10;;;13.90;1.00;;;;;;5028599;28;20199;-63
2022/09/11 02:09:58;;;;;;;47.70;31.83;;;13.90;1.00;;;;;;5028358;28;20250;-65
2022/09/11 02:12:40;;;;;;;60.90;38.43;;;14.00;1.00;;;;;;5043127;28;20203;-64
2022/09/11 02:15:08;;;;;;;58.97;37.97;;;14.10;1.00;;;;;;5022532;28;20204;-65
2022/09/11 02:17:51;;;;;;;62.67;37.17;;;14.10;1.00;;;;;;5027773;28;20199;-63
2022/09/11 02:20:24;;;;;;;59.83;38.10;;;14.10;1.00;;;;;;5030577;28;20254;-63
2022/09/11 02:22:52;;;;;;;56.73;35.53;;;14.00;1.00;;;;;;5008266;28;20265;-63
2022/09/11 02:25:19;;;;;;;52.80;36.07;;;14.00;1.00;;;;;;5025937;28;20200;-63
2022/09/11 02:27:46;;;;;;;54.60;35.53;;;14.40;1.00;;;;;;5030161;28;20200;-64
2022/09/11 02:30:13;;;;;;;58.90;36.63;;;14.00;1.00;;;;;;5005198;28;20193;-63
2022/09/11 02:32:43;;;;;;;57.17;35.60;;;14.10;1.00;;;;;;5006607;28;20227;-64
2022/09/11 02:35:10;;;;;;;55.57;37.37;;;14.10;1.00;;;;;;5023995;28;20200;-64
2022/09/11 02:37:48;;;;;;;52.97;37.37;;;14.10;1.00;;;;;;5008530;28;20227;-63
2022/09/11 02:40:44;;;;;;;53.63;37.27;;;14.10;1.00;;;;;;5023271;28;20678;-63
2022/09/11 02:43:24;;;;;;;54.53;35.40;;;14.10;1.00;;;;;;5002872;28;20200;-63
2022/09/11 02:46:15;;;;;;;56.93;35.77;;;14.00;1.00;;;;;;4997317;28;20274;-67
2022/09/11 02:49:15;;;;;;;55.73;36.73;;;14.00;1.00;;;;;;5023842;28;20208;-68
2022/09/11 02:51:58;;;;;;;52.60;35.57;;;13.80;1.00;;;;;;5009672;28;20624;-67
2022/09/11 02:54:33;;;;;;;64.77;38.43;;;13.80;1.00;;;;;;5007533;28;20243;-66
2022/09/11 02:57:18;;;;;;;61.80;39.43;;;13.80;1.00;;;;;;5005870;28;20193;-66
2022/09/11 03:00:01;;;;;;;64.30;39.53;;;13.70;1.00;;;;;;5007804;28;20203;-65
2022/09/11 03:02:32;;;;;;;65.87;40.37;;;13.60;1.00;;;;;;5024175;28;20968;-65
2022/09/11 03:04:59;;;;;;;68.73;39.13;;;13.50;1.00;;;;;;5008097;28;20213;-63
2022/09/11 03:07:26;;;;;;;60.87;39.53;;;13.50;1.00;;;;;;5025778;28;20299;-63
2022/09/11 03:09:53;;;;;;;68.07;41.03;;;13.50;1.00;;;;;;5022877;28;20200;-64
2022/09/11 03:12:23;;;;;;;68.33;40.40;;;13.50;1.00;;;;;;5006975;28;20234;-64
2022/09/11 03:14:50;;;;;;;76.47;42.53;;;13.50;1.00;;;;;;5035400;28;20253;-65
2022/09/11 03:17:20;;;;;;;77.33;42.97;;;13.60;1.00;;;;;;5027493;28;20199;-62
2022/09/11 03:19:48;;;;;;;76.40;42.17;;;13.70;1.00;;;;;;5029259;28;20199;-64
2022/09/11 03:22:15;;;;;;;79.07;44.03;;;13.80;1.00;;;;;;5043302;28;20206;-64
2022/09/11 03:24:42;;;;;;;80.07;43.63;;;13.80;1.00;;;;;;5024550;28;20196;-63
2022/09/11 03:27:09;;;;;;;88.83;45.93;;;13.80;1.00;;;;;;5042228;28;20277;-66
2022/09/11 03:29:39;;;;;;;87.30;45.70;;;13.90;1.00;;;;;;5027309;28;20195;-64
2022/09/11 03:32:06;;;;;;;80.97;44.83;;;13.90;1.00;;;;;;5026902;28;20517;-64
2022/09/11 03:34:33;;;;;;;87.37;46.73;;;13.90;14.30;;;;;;5042872;28;20195;-64
2022/09/11 03:37:01;;;;;;;88.30;46.60;;;14.00;30.10;;;;;;5044390;28;20692;-65
2022/09/11 03:39:28;;;;;;;94.37;45.37;;;14.00;55.40;;;;;;5024925;28;20262;-64
2022/09/11 03:41:58;;;;;;;89.83;44.90;;;14.10;91.00;;;;;;5042029;28;20210;-64
2022/09/11 03:44:26;;;;;;;98.20;49.07;;;14.10;99.90;;;;;;5024313;28;20222;-66
2022/09/11 03:46:53;;;;;;;93.50;48.33;;;14.20;99.90;;;;;;5045375;28;20188;-62
2022/09/11 03:49:19;;;;;;;104.60;48.50;;;14.10;99.90;;;;;;5027196;28;20213;-63
2022/09/11 03:51:46;;;;;;;102.13;47.93;;;14.20;99.90;;;;;;5043377;28;20798;-66
2022/09/11 03:54:17;;;;;;;98.10;46.73;;;14.20;99.90;;;;;;5025654;28;20622;-63
2022/09/11 03:56:45;;;;;;;100.47;48.27;;;14.20;99.90;;;;;;5044072;28;20253;-64
2022/09/11 03:59:12;;;;;;;105.37;50.03;;;14.20;99.90;;;;;;5040688;28;20218;-64
2022/09/11 04:01:39;;;;;;;94.20;48.77;;;14.20;99.90;;;;;;5044042;28;20199;-65
2022/09/11 04:04:06;;;;;;;147.73;49.70;;;14.20;99.90;;;;;;5043563;28;20196;-64
2022/09/11 04:06:38;;;;;;;114.20;49.90;;;14.20;99.90;;;;;;5042434;28;20753;-64
2022/09/11 04:09:07;;;;;;;128.93;50.17;;;14.20;99.90;;;;;;5024539;28;20694;-62
2022/09/11 04:11:37;;;;;;;129.83;51.13;;;14.30;99.90;;;;;;5035719;28;20198;-64
2022/09/11 04:14:11;;;;;;;100.73;48.30;;;14.30;99.90;;;;;;5024088;28;20752;-64
2022/09/11 04:16:39;;;;;;;105.00;46.13;;;14.30;99.90;;;;;;5027278;28;20254;-64
2022/09/11 04:19:08;;;;;;;170.37;52.93;;;14.40;99.90;;;;;;5026099;28;20289;-65
2022/09/11 04:21:35;;;;;;;222.70;51.77;;;14.40;99.90;;;;;;5042302;28;20558;-65
2022/09/11 04:24:03;;;;;;;142.07;49.23;;;14.30;99.90;;;;;;5025734;28;20206;-64
2022/09/11 04:26:32;;;;;;;140.23;48.97;;;14.30;99.90;;;;;;5026860;28;20277;-64
2022/09/11 04:29:16;;;;;;;121.63;48.57;;;14.40;99.90;;;;;;5041397;28;20202;-64
2022/09/11 04:31:44;;;;;;;103.13;46.30;;;14.40;99.90;;;;;;5043440;28;20203;-65
2022/09/11 04:34:13;;;;;;;128.13;49.00;;;14.40;99.90;;;;;;5042024;28;20216;-64
2022/09/11 04:36:40;;;;;;;74.13;34.25;;;14.50;99.90;;;;;;5042148;28;20516;-63
2022/09/11 04:39:11;;;;;;;107.55;45.60;;;14.50;99.90;;;;;;5026897;28;20604;-64
2022/09/11 04:41:39;;;;;;;104.00;43.83;;;14.60;99.90;;;;;;5025574;28;20230;-64
2022/09/11 04:44:06;;;;;;;98.37;38.80;;;14.60;99.90;;;;;;5038670;28;20252;-64
2022/09/11 04:46:40;;;;;;;91.53;40.63;;;14.60;65.50;;;;;;5025172;28;20221;-65
2022/09/11 04:49:09;;;;;;;111.55;44.65;;;14.60;13.00;;;;;;5024755;28;20745;-64
2022/09/11 04:51:38;;;;;;;207.57;47.63;;;14.60;1.00;;;;;;5024187;28;20435;-64
2022/09/11 04:54:07;;;;;;;91.73;39.20;;;14.50;1.00;;;;;;5041479;28;20203;-64
2022/09/11 04:56:36;;;;;;;111.68;44.35;;;14.50;1.00;;;;;;5041352;28;20522;-64
2022/09/11 04:59:14;;;;;;;113.90;42.73;;;14.60;1.00;;;;;;5036124;28;21379;-64
2022/09/11 05:01:47;;;;;;;114.03;44.37;;;14.60;1.00;;;;;;5024402;28;20192;-64
2022/09/11 05:04:17;;;;;;;89.82;38.80;;;14.60;99.90;;;;;;5041993;28;20210;-64
2022/09/11 05:06:50;;;;;;;100.37;40.87;;;14.60;99.90;;;;;;5026643;28;20272;-65
2022/09/11 05:09:18;;;;;;;98.67;42.53;;;14.70;99.90;;;;;;5042195;28;20199;-64
2022/09/11 05:11:46;;;;;;;89.00;40.83;;;14.70;1.00;;;;;;5024965;28;20221;-65
2022/09/11 05:14:14;;;;;;;71.93;35.50;;;14.70;1.00;;;;;;5041408;28;20242;-64
2022/09/11 05:16:44;;;;;;;63.22;35.75;;;14.70;1.00;;;;;;5025753;28;20835;-64
2022/09/11 05:19:13;;;;;;;59.67;34.60;;;14.70;99.90;;;;;;5043591;28;20218;-65
2022/09/11 05:21:42;;;;;;;121.10;43.47;;;14.90;1.00;;;;;;5045311;28;20639;-64
2022/09/11 05:24:09;;;;;;;107.65;39.10;;;14.80;99.90;;;;;;5046325;28;20953;-64
2022/09/11 05:26:37;;;;;;;69.97;34.73;;;14.70;1.00;;;;;;5028232;28;20237;-65
2022/09/11 05:29:11;;;;;;;52.72;31.58;;;14.90;1.00;;;;;;5042769;28;20302;-65
2022/09/11 05:31:54;;;;;;;146.40;41.17;;;15.00;1.00;;;;;;5043807;28;20283;-65
2022/09/11 05:34:21;;;;;;;77.05;37.25;;;14.90;99.90;;;;;;5043129;28;20246;-64
2022/09/11 05:36:51;;;;;;;55.75;33.13;;;14.80;1.00;;;;;;5040482;28;20192;-63
2022/09/11 05:39:18;;;;;;;109.95;38.95;;;14.80;1.00;;;;;;5042836;28;20245;-65
2022/09/11 05:41:48;;;;;;;101.35;39.63;;;15.00;1.00;;;;;;5025642;28;20203;-64
2022/09/11 05:44:16;;;;;;;170.38;40.72;;;14.80;99.90;;;;;;5040880;28;20290;-64
2022/09/11 05:46:43;;;;;;;79.18;40.00;;;14.70;99.90;;;;;;5021017;28;20207;-63
2022/09/11 05:49:10;;;;;;;89.67;39.93;;;14.80;99.90;;;;;;5042111;28;20202;-65
2022/09/11 05:51:40;;;;;;;74.78;38.67;;;14.80;99.90;;;;;;5029577;28;20203;-64
2022/09/11 05:54:07;;;;;;;90.35;45.05;;;14.90;99.90;;;;;;5029671;28;20306;-63
2022/09/11 05:56:34;;;;;;;92.00;55.10;;;14.90;99.90;;;;;;5045874;28;20282;-64
2022/09/11 05:59:14;;;;;;;84.50;42.13;;;14.90;99.90;;;;;;5044103;28;20593;-63
2022/09/11 06:01:43;;;;;;;92.22;38.33;;;15.00;99.90;;;;;;5026147;28;20199;-64
2022/09/11 06:04:17;;;;;;;84.53;38.97;;;15.00;99.90;;;;;;5024971;28;20209;-64
2022/09/11 06:06:47;;;;;;;73.80;38.47;;;14.90;99.90;;;;;;5044094;28;20208;-65
2022/09/11 06:09:15;;;;;;;92.22;36.78;;;14.90;99.90;;;;;;5027919;28;20204;-65
2022/09/11 06:11:42;;;;;;;131.93;35.10;;;14.90;38.70;;;;;;5043295;28;20761;-65
2022/09/11 06:14:12;;;;;;;84.40;36.20;;;14.90;1.00;;;;;;5025612;28;20711;-62
2022/09/11 06:16:41;;;;;;;99.68;31.65;;;14.90;1.00;;;;;;5035462;28;20222;-62
2022/09/11 06:19:11;;;;;;;65.05;32.63;;;14.90;1.00;;;;;;5043432;28;20191;-62
2022/09/11 06:21:39;;;;;;;78.77;34.90;;;15.00;1.00;;;;;;5027650;28;21039;-62
2022/09/11 06:24:18;;;;;;;57.95;32.78;;;15.00;1.00;;;;;;5044283;28;20798;-62
2022/09/11 06:26:45;;;;;;;61.58;31.92;;;15.10;1.00;;;;;;5028433;28;20206;-61
2022/09/11 06:29:14;;;;;;;43.47;27.95;;;15.30;1.00;;;;;;5028494;28;20851;-63
2022/09/11 06:31:47;;;;;;;38.65;24.27;;;15.30;99.90;;;;;;5026881;28;20200;-63
2022/09/11 06:34:15;;;;;;;82.35;30.30;;;15.30;99.90;;;;;;5045450;28;20342;-64
2022/09/11 06:36:42;;;;;;;39.30;25.55;;;15.40;1.00;;;;;;5046246;28;20195;-64
2022/09/11 06:39:12;;;;;;;45.65;28.23;;;15.40;1.00;;;;;;5046381;28;20203;-62
2022/09/11 06:41:39;;;;;;;109.20;27.67;;;15.40;99.90;;;;;;5028958;28;20571;-62
2022/09/11 06:44:11;;;;;;;58.00;22.15;;;15.50;32.10;;;;;;5044177;28;20203;-63
2022/09/11 06:46:39;;;;;;;41.20;21.40;;;15.70;1.00;;;;;;5027053;28;20695;-64
2022/09/11 06:49:08;;;;;;;24.83;20.05;;;15.80;99.90;;;;;;5046251;28;20247;-64
2022/09/11 06:51:55;;;;;;;42.95;19.77;;;15.90;1.00;;;;;;5045059;28;20703;-64
2022/09/11 06:54:21;;;;;;;37.70;22.30;;;16.00;1.00;;;;;;5044503;28;20314;-61
2022/09/11 06:56:51;;;;;;;25.98;20.95;;;16.00;1.00;;;;;;5044506;28;20192;-64
2022/09/11 06:59:18;;;;;;;33.22;21.55;;;15.90;1.00;;;;;;5037232;28;20187;-63
2022/09/11 07:01:45;;;;;;;40.25;20.27;;;15.70;1.00;;;;;;5040134;28;20202;-65
2022/09/11 07:04:12;;;;;;;46.63;21.00;;;15.70;99.90;;;;;;5020866;28;20261;-64
2022/09/11 07:06:40;;;;;;;34.50;22.33;;;15.70;99.90;;;;;;5044622;28;20253;-64
2022/09/11 07:09:10;;;;;;;30.20;21.98;;;15.60;97.80;;;;;;5029763;28;20637;-62
2022/09/11 07:11:45;;;;;;;41.60;22.25;;;15.60;99.90;;;;;;5031623;28;20195;-63
2022/09/11 07:14:12;;;;;;;35.90;22.85;;;15.70;1.00;;;;;;5043369;28;20312;-64
2022/09/11 07:16:41;;;;;;;43.40;21.27;;;15.60;99.90;;;;;;5044346;28;20691;-63
2022/09/11 07:19:11;;;;;;;51.50;23.08;;;15.60;99.90;;;;;;5032201;28;20196;-63
2022/09/11 07:21:39;;;;;;;49.75;24.45;;;15.60;99.90;;;;;;5047932;28;20206;-63
2022/09/11 07:24:06;;;;;;;40.72;22.75;;;15.70;1.00;;;;;;5048720;28;20199;-63
2022/09/11 07:26:37;;;;;;;28.88;16.77;;;15.80;99.90;;;;;;5031847;28;20921;-63
2022/09/11 07:29:11;;;;;;;31.48;23.42;;;15.90;99.90;;;;;;5039005;28;20446;-64
2022/09/11 07:31:41;;;;;;;29.00;22.17;;;16.00;65.70;;;;;;5030178;28;20227;-63
2022/09/11 07:34:10;;;;;;;34.63;21.77;;;16.10;38.90;;;;;;5047705;28;20210;-65
2022/09/11 07:36:37;;;;;;;32.58;21.73;;;16.00;1.00;;;;;;5026231;28;20231;-65
2022/09/11 07:39:06;;;;;;;36.50;21.23;;;15.80;1.00;;;;;;5028394;28;20203;-63
2022/09/11 07:41:37;;;;;;;21.98;16.38;;;15.70;1.00;;;;;;5040108;28;20253;-63
2022/09/11 07:44:13;;;;;;;42.70;23.35;;;15.60;99.90;;;;;;5011150;28;20235;-63
2022/09/11 07:46:40;;;;;;;29.75;23.90;;;15.50;1.00;;;;;;5025499;28;20207;-65
2022/09/11 07:49:10;;;;;;;34.95;24.25;;;15.50;1.00;;;;;;5045277;28;22076;-64
2022/09/11 07:51:40;;;;;;;43.45;23.63;;;15.50;1.00;;;;;;5045983;28;20663;-64
2022/09/11 07:54:09;;;;;;;36.53;24.08;;;15.70;1.00;;;;;;5045462;28;20291;-61
2022/09/11 07:56:37;;;;;;;37.42;24.27;;;15.70;1.00;;;;;;5046165;28;20234;-62
2022/09/11 07:59:08;;;;;;;38.97;24.52;;;15.80;99.90;;;;;;5042258;28;20231;-62
2022/09/11 08:01:41;;;;;;;30.80;24.48;;;15.70;99.90;;;;;;5022753;28;20292;-63
2022/09/11 08:04:15;;;;;;;35.00;24.25;;;15.90;1.00;;;;;;5026230;28;20203;-63
2022/09/11 08:06:42;;;;;;;31.98;25.48;;;15.80;48.60;;;;;;5038591;28;20302;-63
2022/09/11 08:09:15;;;;;;;26.17;18.60;;;15.70;99.90;;;;;;5030011;28;20230;-64
2022/09/11 08:11:48;;;;;;;32.20;23.55;;;16.00;1.00;;;;;;5041670;28;20437;-65
2022/09/11 08:14:17;;;;;;;28.25;22.02;;;16.20;99.90;;;;;;5006448;28;20731;-64
2022/09/11 08:16:47;;;;;;;26.42;21.52;;;16.20;1.00;;;;;;5043098;28;20215;-65
2022/09/11 08:19:20;;;;;;;26.35;21.55;;;16.40;1.00;;;;;;5044135;28;20208;-64
2022/09/11 08:21:55;;;;;;;26.17;22.23;;;16.50;99.90;;;;;;5043123;28;20245;-64
2022/09/11 08:24:23;;;;;;;27.98;22.95;;;16.20;99.90;;;;;;5043660;28;20214;-63
2022/09/11 08:26:55;;;;;;;28.70;22.65;;;16.20;99.90;;;;;;5037434;28;20215;-63
2022/09/11 08:29:24;;;;;;;28.55;21.05;;;16.40;1.00;;;;;;5041365;28;20231;-63
2022/09/11 08:31:52;;;;;;;22.30;18.33;;;16.50;99.90;;;;;;5025052;28;20231;-64
2022/09/11 08:34:21;;;;;;;24.58;21.58;;;16.60;99.90;;;;;;5041256;28;20308;-64
2022/09/11 08:36:49;;;;;;;27.35;21.55;;;16.80;99.90;;;;;;5027543;28;20192;-64
2022/09/11 08:39:16;;;;;;;20.63;16.80;;;16.90;99.90;;;;;;5029563;28;20217;-64
2022/09/11 08:42:12;;;;;;;19.15;16.83;;;17.00;99.90;;;;;;5024366;28;20200;-65
2022/09/11 08:44:47;;;;;;;24.60;20.50;;;17.10;94.10;;;;;;5040886;28;20200;-64
2022/09/11 08:47:25;;;;;;;21.10;17.98;;;17.10;1.00;;;;;;5012450;28;20231;-64
2022/09/11 08:50:05;;;;;;;23.85;19.15;;;17.20;99.90;;;;;;5036162;28;20496;-66
2022/09/11 08:52:35;;;;;;;20.63;17.88;;;17.20;99.90;;;;;;5042017;28;20749;-64
2022/09/11 08:55:05;;;;;;;15.43;13.90;;;17.20;99.90;;;;;;5043860;28;20306;-64
2022/09/11 08:57:48;;;;;;;17.73;15.40;;;17.50;99.90;;;;;;5045994;28;20199;-65
2022/09/11 09:00:23;;;;;;;19.67;14.68;;;17.90;1.00;;;;;;5043390;28;20192;-67
2022/09/11 09:03:13;;;;;;;14.23;12.68;;;18.10;1.00;;;;;;5046745;28;20191;-64
2022/09/11 09:05:45;;;;;;;20.33;16.52;;;18.10;1.00;;;;;;5044956;28;20567;-63
2022/09/11 09:08:26;;;;;;;23.27;19.13;;;18.10;1.00;;;;;;5055847;28;20404;-65
2022/09/11 09:11:06;;;;;;;17.48;15.05;;;18.20;1.00;;;;;;5044376;28;20191;-65
2022/09/11 09:14:15;;;;;;;18.00;15.18;;;18.40;99.90;;;;;;5030054;28;20231;-66
2022/09/11 09:16:45;;;;;;;17.50;15.68;;;18.70;99.90;;;;;;5017116;28;20230;-67
2022/09/11 09:19:24;;;;;;;18.60;16.05;;;18.80;25.50;;;;;;5045456;28;20195;-65
2022/09/11 09:22:18;;;;;;;17.50;15.25;;;18.80;15.10;;;;;;5044313;28;20278;-67
2022/09/11 09:24:49;;;;;;;18.00;15.88;;;18.90;1.00;;;;;;5028225;28;20215;-66
2022/09/11 09:27:43;;;;;;;17.83;16.02;;;19.20;1.00;;;;;;5051547;28;20249;-66
2022/09/11 09:30:17;;;;;;;19.27;15.82;;;18.90;1.00;;;;;;5028993;28;20195;-66
2022/09/11 09:33:02;;;;;;;19.63;16.98;;;18.70;99.90;;;;;;5029252;28;20526;-66
2022/09/11 09:35:42;;;;;;;17.50;15.45;;;18.50;99.90;;;;;;5045374;28;20637;-67
2022/09/11 09:38:21;;;;;;;16.05;14.35;;;18.60;61.20;;;;;;5031733;28;20191;-67
2022/09/11 09:41:02;;;;;;;15.77;14.18;;;18.80;36.90;;;;;;5046222;28;20260;-68
2022/09/11 09:43:52;;;;;;;15.63;14.05;;;19.00;1.00;;;;;;5031374;28;20701;-65
2022/09/11 09:46:40;;;;;;;14.70;13.25;;;19.10;1.00;;;;;;5049020;28;20227;-67
2022/09/11 09:49:16;;;;;;;18.95;16.95;;;19.20;1.00;;;;;;5048304;28;20688;-67
2022/09/11 09:51:47;;;;;;;16.92;15.20;;;18.90;1.00;;;;;;5047327;28;20684;-66
2022/09/11 09:54:20;;;;;;;19.10;17.05;;;18.50;5.30;;;;;;5050063;28;20219;-67
2022/09/11 09:56:57;;;;;;;17.02;15.23;;;18.50;41.00;;;;;;5048225;28;20193;-67
2022/09/11 09:59:46;;;;;;;16.10;14.48;;;18.50;99.90;;;;;;5048888;28;20274;-67
2022/09/11 10:02:39;;;;;;;16.17;14.48;;;18.50;20.40;;;;;;5046322;28;20191;-67
2022/09/11 10:05:17;;;;;;;15.77;14.27;;;18.70;1.00;;;;;;5049381;28;20223;-66
2022/09/11 10:07:55;;;;;;;19.25;17.25;;;18.40;99.90;;;;;;5042550;28;20278;-67
2022/09/11 10:10:39;;;;;;;17.73;16.00;;;18.00;99.90;;;;;;5047844;28;20215;-66
2022/09/11 10:13:23;;;;;;;17.75;15.90;;;18.10;99.90;;;;;;5047197;28;20238;-67
2022/09/11 10:15:52;;;;;;;17.70;15.80;;;18.00;99.90;;;;;;5047406;28;20250;-67
2022/09/11 10:18:29;;;;;;;19.00;16.95;;;18.00;99.90;;;;;;5047249;28;20215;-67
2022/09/11 10:21:19;;;;;;;19.08;16.40;;;17.90;99.90;;;;;;5047954;28;20199;-67
2022/09/11 10:24:01;;;;;;;19.20;17.00;;;17.90;99.90;;;;;;5032707;28;20215;-66
2022/09/11 10:26:44;;;;;;;20.00;16.35;;;18.00;99.90;;;;;;5046883;28;20321;-66
2022/09/11 10:29:23;;;;;;;15.88;14.00;;;18.10;99.90;;;;;;5028863;28;20200;-67
2022/09/11 10:31:58;;;;;;;15.63;14.00;;;18.20;99.90;;;;;;5042896;28;20195;-67
2022/09/11 10:34:27;;;;;;;17.90;16.02;;;18.30;99.90;;;;;;5030983;28;20214;-67
2022/09/11 10:37:15;;;;;;;18.02;16.13;;;18.30;99.90;;;;;;5046738;28;20199;-66
2022/09/11 10:39:45;;;;;;;15.93;14.30;;;18.20;96.30;;;;;;5046356;28;20206;-67
2022/09/11 10:42:26;;;;;;;16.10;14.40;;;18.30;99.90;;;;;;5047306;28;20223;-66
2022/09/11 10:45:04;;;;;;;22.13;12.93;;;18.40;1.00;;;;;;5046364;28;20227;-67
2022/09/11 10:47:32;;;;;;;18.67;14.38;;;18.40;26.10;;;;;;5027774;28;20204;-67
2022/09/11 10:50:17;;;;;;;17.83;13.18;;;18.60;1.00;;;;;;5043302;28;20206;-67
2022/09/11 10:53:05;;;;;;;17.88;14.18;;;18.60;19.90;;;;;;5044722;28;20211;-65
2022/09/11 10:55:39;;;;;;;18.38;15.77;;;18.70;1.00;;;;;;5044932;28;20651;-65
2022/09/11 10:58:18;;;;;;;15.85;13.10;;;18.60;1.00;;;;;;5043012;28;20298;-67
2022/09/11 11:00:48;;;;;;;15.73;13.20;;;18.50;6.60;;;;;;5028510;28;20198;-67
2022/09/11 11:03:21;;;;;;;17.05;14.50;;;18.60;1.00;;;;;;5041648;28;20195;-66
2022/09/11 11:06:05;;;;;;;14.75;13.15;;;18.40;1.00;;;;;;5046544;28;20222;-67
2022/09/11 11:08:57;;;;;;;16.67;13.32;;;18.70;1.00;;;;;;5026417;28;20221;-66
2022/09/11 11:11:50;;;;;;;14.70;12.45;;;18.60;1.00;;;;;;5047418;28;20203;-67
2022/09/11 11:14:42;;;;;;;17.73;14.35;;;19.20;1.00;;;;;;5047388;28;20223;-67
2022/09/11 11:17:58;;;;;;;15.38;12.63;;;19.30;1.00;;;;;;5047802;28;20211;-66
2022/09/11 11:21:02;;;;;;;16.98;13.65;;;19.60;1.00;;;;;;5022260;28;20203;-66
2022/09/11 11:24:00;;;;;;;16.20;13.48;;;20.10;1.00;;;;;;4995530;28;20211;-67
2022/09/11 11:26:38;;;;;;;16.90;13.88;;;20.70;99.90;;;;;;5040868;28;20192;-67
2022/09/11 11:29:19;;;;;;;14.23;12.75;;;20.70;99.90;;;;;;5041601;28;20207;-66
2022/09/11 11:31:55;;;;;;;18.10;15.13;;;20.90;99.90;;;;;;5043072;28;20198;-66
2022/09/11 11:34:50;;;;;;;15.07;12.02;;;20.20;99.90;;;;;;5030363;28;20203;-66
2022/09/11 11:37:24;;;;;;;17.42;14.45;;;20.90;99.90;;;;;;5027530;28;21402;-66
2022/09/11 11:40:01;;;;;;;13.88;11.75;;;21.30;99.90;;;;;;5044331;28;20663;-64
2022/09/11 11:42:45;;;;;;;13.82;11.18;;;21.60;99.90;;;;;;5042130;28;20191;-66
2022/09/11 11:45:22;;;;;;;14.10;10.65;;;22.10;99.90;;;;;;5044489;28;20204;-68
2022/09/11 11:47:52;;;;;;;14.93;10.90;;;22.60;99.90;;;;;;5027385;28;20322;-67
2022/09/11 11:50:23;;;;;;;13.48;11.68;;;23.20;94.10;;;;;;5028816;28;20662;-65
2022/09/11 11:52:59;;;;;;;12.95;11.50;;;23.70;32.10;;;;;;5030119;28;20207;-67
2022/09/11 11:56:01;;;;;;;18.80;15.95;;;24.20;1.00;;;;;;5027805;28;20809;-66
2022/09/11 11:58:54;;;;;;;16.95;14.60;;;21.60;99.90;;;;;;5039635;28;20183;-68
2022/09/11 12:01:33;;;;;;;14.52;12.90;;;22.10;99.90;;;;;;5044511;28;20219;-67
2022/09/11 12:04:07;;;;;;;14.82;13.13;;;22.70;99.90;;;;;;5041234;28;20202;-66
2022/09/11 12:06:34;;;;;;;12.73;11.45;;;23.70;50.60;;;;;;5044129;28;20282;-66
2022/09/11 12:09:04;;;;;;;14.93;12.00;;;24.00;7.50;;;;;;5021016;28;20214;-66
2022/09/11 12:11:32;;;;;;;14.45;12.70;;;24.60;1.00;;;;;;5028409;28;20210;-65
2022/09/11 12:14:00;;;;;;;13.85;11.50;;;25.60;1.00;;;;;;5044354;28;20223;-67
2022/09/11 12:16:34;;;;;;;17.02;13.50;;;25.50;1.00;;;;;;5042862;28;20227;-67
2022/09/11 12:19:21;;;;;;;15.93;13.80;;;24.40;1.00;;;;;;5043188;28;20661;-67
2022/09/11 12:21:51;;;;;;;17.65;15.73;;;22.60;2.70;;;;;;5025774;28;20197;-68
2022/09/11 12:24:23;;;;;;;16.92;15.00;;;20.80;99.90;;;;;;5041376;28;20196;-68
2022/09/11 12:27:28;;;;;;;18.08;15.75;;;20.50;99.90;;;;;;5041318;28;20202;-66
2022/09/11 12:30:05;;;;;;;21.55;17.42;;;20.60;99.90;;;;;;5041963;28;20782;-66
2022/09/11 12:32:50;;;;;;;19.45;15.40;;;20.90;99.90;;;;;;5039377;28;20244;-67
2022/09/11 12:35:31;;;;;;;18.38;16.02;;;21.20;99.90;;;;;;5038435;28;20868;-66
2022/09/11 12:38:16;;;;;;;20.10;16.17;;;21.30;99.90;;;;;;5037806;28;20230;-67
2022/09/11 12:41:06;;;;;;;17.02;14.27;;;20.90;99.90;;;;;;5038506;28;20674;-67
2022/09/11 12:43:36;;;;;;;17.20;14.27;;;20.70;99.90;;;;;;5025938;28;20246;-67
2022/09/11 12:46:07;;;;;;;22.10;15.45;;;20.40;99.90;;;;;;5042032;28;20229;-66
2022/09/11 12:48:39;;;;;;;19.75;16.08;;;20.60;99.90;;;;;;5035901;28;20195;-67
2022/09/11 12:51:20;;;;;;;16.88;15.05;;;20.60;99.90;;;;;;5041675;28;20203;-66
2022/09/11 12:53:51;;;;;;;18.13;14.55;;;20.40;99.90;;;;;;5043746;28;20235;-66
2022/09/11 12:56:22;;;;;;;16.00;14.15;;;21.00;99.90;;;;;;5043922;28;20286;-66
2022/09/11 12:58:59;;;;;;;15.77;13.63;;;20.60;99.90;;;;;;5041996;28;20195;-67
2022/09/11 13:01:31;;;;;;;15.30;12.80;;;21.20;99.90;;;;;;5042120;28;20196;-67
2022/09/11 13:04:09;;;;;;;16.75;13.25;;;21.10;99.90;;;;;;5039140;28;20971;-66
2022/09/11 13:06:41;;;;;;;17.05;13.82;;;20.70;99.90;;;;;;5021873;28;20285;-66
2022/09/11 13:09:28;;;;;;;15.68;13.73;;;21.30;99.90;;;;;;5043381;28;20268;-66